Time;durP1;ratioP1;P1;durP2;ratioP2;P2;SDS_P1;SDS_P2;PMS_P1;PMS_P2;Temp;Humidity;BMP_temperature;BMP_pressure;BME280_temperature;BME280_humidity;BME280_pressure;Samples;Min_cycle;Max_cycle;Signal;HPM_P1;HPM_P2
2022/10/18 00:00:07;;;;;;;30.17;18.43;;;;;;;;;;4421850;32;20242;-85
2022/10/18 00:02:34;;;;;;;38.83;22.90;;;;;;;;;;4422649;32;20201;-86
2022/10/18 00:05:01;;;;;;;40.80;27.47;;;;;;;;;;4422056;32;20300;-85
2022/10/18 00:07:27;;;;;;;55.43;29.47;;;;;;;;;;4422209;32;20576;-85
2022/10/18 00:09:54;;;;;;;59.87;33.10;;;;;;;;;;4422390;32;20243;-85
2022/10/18 00:12:25;;;;;;;58.97;33.73;;;;;;;;;;4420944;32;20241;-85
2022/10/18 00:14:52;;;;;;;59.43;33.27;;;;;;;;;;4422251;32;20233;-85
2022/10/18 00:17:19;;;;;;;52.93;30.47;;;;;;;;;;4421394;32;20225;-85
2022/10/18 00:19:48;;;;;;;55.77;32.80;;;;;;;;;;4421986;32;20209;-86
2022/10/18 00:22:14;;;;;;;57.40;33.87;;;;;;;;;;4420903;32;20221;-86
2022/10/18 00:24:41;;;;;;;59.47;32.33;;;;;;;;;;4408866;32;20233;-85
2022/10/18 00:27:10;;;;;;;57.20;32.27;;;;;;;;;;4422425;32;20213;-85
2022/10/18 00:29:39;;;;;;;56.40;29.10;;;;;;;;;;4422418;32;20213;-85
2022/10/18 00:32:07;;;;;;;40.53;23.80;;;;;;;;;;4421823;32;20711;-85
2022/10/18 00:34:34;;;;;;;30.90;19.63;;;;;;;;;;4421403;32;20589;-85
2022/10/18 00:37:00;;;;;;;27.33;17.43;;;;;;;;;;4421656;32;20308;-85
2022/10/18 00:39:27;;;;;;;24.70;16.13;;;;;;;;;;4419948;32;20241;-86
2022/10/18 00:41:54;;;;;;;26.13;16.27;;;;;;;;;;4422120;32;20323;-85
2022/10/18 00:44:58;;;;;;;29.70;17.33;;;;;;;;;;4422170;32;20383;-85
2022/10/18 00:47:27;;;;;;;31.23;15.53;;;;;;;;;;4420931;32;20242;-86
2022/10/18 00:49:59;;;;;;;22.97;15.30;;;;;;;;;;4421225;32;20237;-85
2022/10/18 00:52:29;;;;;;;21.70;14.60;;;;;;;;;;4421942;32;20251;-85
2022/10/18 00:54:57;;;;;;;33.07;15.53;;;;;;;;;;4421148;32;20249;-85
2022/10/18 00:57:24;;;;;;;24.50;13.30;;;;;;;;;;4421563;32;20669;-86
2022/10/18 00:59:51;;;;;;;22.27;12.43;;;;;;;;;;4421740;32;20287;-85
2022/10/18 01:02:19;;;;;;;17.23;11.70;;;;;;;;;;4422039;32;20229;-85
2022/10/18 01:04:48;;;;;;;19.43;11.80;;;;;;;;;;4421523;32;20638;-85
2022/10/18 01:07:23;;;;;;;19.33;12.00;;;;;;;;;;4421906;32;20221;-85
2022/10/18 01:09:58;;;;;;;21.00;11.70;;;;;;;;;;4421730;32;20534;-85
2022/10/18 01:12:32;;;;;;;16.50;10.17;;;;;;;;;;4421704;32;20240;-85
2022/10/18 01:15:07;;;;;;;21.23;10.73;;;;;;;;;;4421138;32;20246;-86
2022/10/18 01:17:44;;;;;;;23.53;11.07;;;;;;;;;;4421772;32;20240;-85
2022/10/18 01:20:33;;;;;;;22.43;12.17;;;;;;;;;;4422106;32;20282;-84
2022/10/18 01:23:05;;;;;;;22.10;12.77;;;;;;;;;;4421670;32;20657;-85
2022/10/18 01:25:40;;;;;;;23.73;14.83;;;;;;;;;;4422073;32;20223;-85
2022/10/18 01:28:24;;;;;;;31.77;16.40;;;;;;;;;;4421698;32;20556;-85
2022/10/18 01:30:58;;;;;;;22.07;15.67;;;;;;;;;;4421977;32;20326;-85
2022/10/18 01:33:36;;;;;;;30.70;17.30;;;;;;;;;;4422142;32;20224;-85
2022/10/18 01:36:15;;;;;;;33.83;18.37;;;;;;;;;;4421985;32;20265;-85
2022/10/18 01:38:44;;;;;;;29.53;18.07;;;;;;;;;;4421457;32;20221;-85
2022/10/18 01:41:13;;;;;;;34.33;17.13;;;;;;;;;;4421465;32;20778;-85
2022/10/18 01:43:41;;;;;;;25.80;15.20;;;;;;;;;;4421412;32;20557;-85
2022/10/18 01:46:10;;;;;;;21.97;13.10;;;;;;;;;;4421893;32;20606;-85
2022/10/18 01:48:37;;;;;;;19.20;12.03;;;;;;;;;;4421299;32;20225;-85
2022/10/18 01:51:05;;;;;;;24.57;13.80;;;;;;;;;;4421994;32;20224;-85
2022/10/18 01:53:33;;;;;;;29.83;14.73;;;;;;;;;;4424126;32;20217;-85
2022/10/18 01:56:17;;;;;;;18.23;12.40;;;;;;;;;;4424090;32;20686;-86
2022/10/18 01:58:53;;;;;;;22.97;13.37;;;;;;;;;;4424035;32;20251;-86
2022/10/18 02:01:34;;;;;;;25.07;12.83;;;;;;;;;;4424574;32;20235;-85
2022/10/18 02:04:11;;;;;;;25.30;14.57;;;;;;;;;;4423099;32;20309;-86
2022/10/18 02:06:44;;;;;;;22.83;14.07;;;;;;;;;;4424374;32;20239;-86
2022/10/18 02:09:16;;;;;;;21.30;11.93;;;;;;;;;;4424445;32;20325;-85
2022/10/18 02:11:47;;;;;;;17.77;11.80;;;;;;;;;;4424186;32;20281;-85
2022/10/18 02:14:20;;;;;;;27.27;14.40;;;;;;;;;;4424285;32;20205;-85
2022/10/18 02:16:51;;;;;;;20.90;13.67;;;;;;;;;;4424178;32;20265;-85
2022/10/18 02:19:24;;;;;;;25.63;14.10;;;;;;;;;;4423080;32;20237;-85
2022/10/18 02:21:53;;;;;;;21.17;13.80;;;;;;;;;;4424148;32;20641;-85
2022/10/18 02:24:24;;;;;;;20.33;12.90;;;;;;;;;;4424234;32;20636;-85
2022/10/18 02:26:51;;;;;;;24.07;14.13;;;;;;;;;;4424061;32;20344;-85
2022/10/18 02:29:18;;;;;;;22.20;13.53;;;;;;;;;;4424318;32;20213;-85
2022/10/18 02:31:48;;;;;;;21.33;12.87;;;;;;;;;;4422763;32;20224;-86
2022/10/18 02:34:21;;;;;;;22.40;12.60;;;;;;;;;;4424194;32;20229;-85
2022/10/18 02:36:52;;;;;;;17.63;12.30;;;;;;;;;;4423868;32;20276;-85
2022/10/18 02:39:22;;;;;;;25.60;13.53;;;;;;;;;;4422826;32;20231;-85
2022/10/18 02:41:49;;;;;;;22.13;13.40;;;;;;;;;;4423777;32;20209;-86
2022/10/18 02:44:16;;;;;;;24.23;15.77;;;;;;;;;;4423372;32;20242;-85
2022/10/18 02:46:43;;;;;;;29.20;17.17;;;;;;;;;;4423291;32;20210;-85
2022/10/18 02:49:10;;;;;;;33.43;18.43;;;;;;;;;;4423805;32;20214;-85
2022/10/18 02:51:38;;;;;;;36.70;20.90;;;;;;;;;;4423109;32;20263;-85
2022/10/18 02:54:07;;;;;;;40.07;20.47;;;;;;;;;;4423105;32;20561;-85
2022/10/18 02:56:34;;;;;;;35.37;19.67;;;;;;;;;;4423041;32;20580;-85
2022/10/18 02:59:03;;;;;;;30.37;18.80;;;;;;;;;;4423597;32;20286;-85
2022/10/18 03:01:31;;;;;;;32.70;18.90;;;;;;;;;;4423077;32;20236;-86
2022/10/18 03:04:00;;;;;;;30.43;18.17;;;;;;;;;;4422330;32;20225;-85
2022/10/18 03:06:27;;;;;;;28.23;18.43;;;;;;;;;;4422987;32;20221;-85
2022/10/18 03:08:56;;;;;;;47.60;21.23;;;;;;;;;;4422821;32;20243;-85
2022/10/18 03:11:24;;;;;;;33.50;19.87;;;;;;;;;;4423365;32;20680;-85
2022/10/18 03:13:51;;;;;;;33.90;18.83;;;;;;;;;;4422852;32;20292;-85
2022/10/18 03:16:18;;;;;;;33.40;18.10;;;;;;;;;;4422904;32;20210;-85
2022/10/18 03:18:45;;;;;;;29.30;14.40;;;;;;;;;;4422816;32;20270;-85
2022/10/18 03:21:14;;;;;;;23.23;12.20;;;;;;;;;;4423470;32;20201;-85
2022/10/18 03:23:41;;;;;;;21.60;13.27;;;;;;;;;;4422668;32;20743;-85
2022/10/18 03:26:10;;;;;;;26.20;14.53;;;;;;;;;;4423188;32;20201;-86
2022/10/18 03:28:37;;;;;;;27.33;16.57;;;;;;;;;;4422603;32;20585;-85
2022/10/18 03:31:04;;;;;;;25.33;13.73;;;;;;;;;;4422587;32;20243;-85
2022/10/18 03:33:32;;;;;;;17.83;12.10;;;;;;;;;;4422639;32;20819;-85
2022/10/18 03:35:59;;;;;;;28.60;13.30;;;;;;;;;;4421540;32;20285;-86
2022/10/18 03:38:31;;;;;;;22.20;11.73;;;;;;;;;;4422500;32;20247;-85
2022/10/18 03:41:00;;;;;;;19.63;11.57;;;;;;;;;;4421900;32;20241;-84
2022/10/18 03:43:28;;;;;;;30.33;13.33;;;;;;;;;;4422421;32;20217;-86
2022/10/18 03:45:56;;;;;;;26.07;14.37;;;;;;;;;;4421401;32;20221;-86
2022/10/18 03:48:24;;;;;;;25.37;15.80;;;;;;;;;;4421221;32;20225;-85
2022/10/18 03:50:52;;;;;;;31.43;18.80;;;;;;;;;;4421981;32;20637;-85
2022/10/18 03:53:19;;;;;;;35.20;20.80;;;;;;;;;;4422828;32;20308;-85
2022/10/18 03:55:53;;;;;;;35.10;20.97;;;;;;;;;;4422839;32;20201;-86
2022/10/18 03:58:20;;;;;;;33.93;23.33;;;;;;;;;;4422221;32;20643;-85
2022/10/18 04:00:51;;;;;;;36.97;21.33;;;;;;;;;;4422260;32;20223;-85
2022/10/18 04:03:26;;;;;;;31.73;17.77;;;;;;;;;;4422255;32;20680;-85
2022/10/18 04:05:53;;;;;;;54.00;29.90;;;;;;;;;;4422578;32;20630;-85
2022/10/18 04:08:20;;;;;;;80.43;40.80;;;;;;;;;;4421088;32;20283;-85
2022/10/18 04:10:47;;;;;;;76.73;44.70;;;;;;;;;;4422604;32;20231;-85
2022/10/18 04:13:14;;;;;;;102.63;52.10;;;;;;;;;;4422027;32;20266;-85
2022/10/18 04:15:41;;;;;;;70.70;43.50;;;;;;;;;;4422601;32;20231;-85
2022/10/18 04:18:09;;;;;;;70.67;38.87;;;;;;;;;;4421365;32;20520;-86
2022/10/18 04:20:36;;;;;;;52.53;31.83;;;;;;;;;;4422007;32;20638;-85
2022/10/18 04:23:03;;;;;;;59.93;33.40;;;;;;;;;;4422676;32;20265;-85
2022/10/18 04:25:30;;;;;;;47.40;31.70;;;;;;;;;;4421989;32;20221;-85
2022/10/18 04:27:57;;;;;;;50.43;28.73;;;;;;;;;;4422520;32;20209;-85
2022/10/18 04:30:23;;;;;;;61.30;31.00;;;;;;;;;;4421839;32;20226;-85
2022/10/18 04:32:50;;;;;;;40.57;28.40;;;;;;;;;;4421769;32;20225;-85
2022/10/18 04:35:23;;;;;;;53.73;29.50;;;;;;;;;;4421778;32;20233;-85
2022/10/18 04:37:50;;;;;;;54.03;32.40;;;;;;;;;;4422280;32;20551;-85
2022/10/18 04:40:16;;;;;;;57.37;34.07;;;;;;;;;;4421719;32;20225;-85
2022/10/18 04:42:43;;;;;;;53.27;29.20;;;;;;;;;;4421521;32;20637;-85
2022/10/18 04:45:11;;;;;;;38.37;22.53;;;;;;;;;;4421518;32;20733;-85
2022/10/18 04:47:38;;;;;;;36.80;23.07;;;;;;;;;;4420570;32;20239;-86
2022/10/18 04:50:06;;;;;;;50.23;24.53;;;;;;;;;;4420308;32;20546;-85
2022/10/18 04:52:34;;;;;;;41.00;23.30;;;;;;;;;;4421350;32;20629;-86
2022/10/18 04:55:01;;;;;;;40.77;22.33;;;;;;;;;;4421447;32;20296;-85
2022/10/18 04:57:31;;;;;;;41.27;22.23;;;;;;;;;;4420704;32;20305;-86
2022/10/18 04:59:59;;;;;;;39.17;22.30;;;;;;;;;;4421174;32;20270;-86
2022/10/18 05:02:26;;;;;;;33.17;21.27;;;;;;;;;;4420754;32;20232;-85
2022/10/18 05:04:53;;;;;;;39.53;24.43;;;;;;;;;;4420385;32;20636;-85
2022/10/18 05:07:20;;;;;;;39.67;22.47;;;;;;;;;;4421090;32;20232;-85
2022/10/18 05:09:48;;;;;;;41.60;25.50;;;;;;;;;;4420755;32;20237;-84
2022/10/18 05:12:18;;;;;;;41.10;25.90;;;;;;;;;;4420474;32;20290;-85
2022/10/18 05:14:45;;;;;;;48.70;27.60;;;;;;;;;;4420504;32;20244;-86
2022/10/18 05:17:12;;;;;;;61.67;25.30;;;;;;;;;;4420338;32;20213;-86
2022/10/18 05:19:39;;;;;;;36.13;24.50;;;;;;;;;;4421117;32;20229;-85
2022/10/18 05:22:06;;;;;;;44.93;27.67;;;;;;;;;;4421034;32;20213;-88
2022/10/18 05:24:34;;;;;;;53.00;29.17;;;;;;;;;;4421066;32;20252;-85
2022/10/18 05:27:02;;;;;;;57.70;25.10;;;;;;;;;;4423413;32;20206;-85
2022/10/18 05:29:30;;;;;;;54.53;27.33;;;;;;;;;;4422838;32;20257;-86
2022/10/18 05:31:57;;;;;;;66.40;34.43;;;;;;;;;;4423809;32;20231;-86
2022/10/18 05:34:26;;;;;;;83.83;46.50;;;;;;;;;;4422944;32;20255;-86
2022/10/18 05:36:53;;;;;;;114.67;56.20;;;;;;;;;;4424182;32;20319;-86
2022/10/18 05:39:20;;;;;;;128.07;65.07;;;;;;;;;;4423906;32;20229;-86
2022/10/18 05:41:47;;;;;;;142.60;70.30;;;;;;;;;;4423415;32;20242;-85
2022/10/18 05:44:16;;;;;;;117.50;67.20;;;;;;;;;;4424192;32;20233;-86
2022/10/18 05:46:43;;;;;;;131.67;74.03;;;;;;;;;;4424499;32;20280;-87
2022/10/18 05:49:11;;;;;;;112.47;64.17;;;;;;;;;;4423139;32;20229;-87
2022/10/18 05:51:38;;;;;;;99.30;58.87;;;;;;;;;;4424693;32;20240;-86
2022/10/18 05:54:05;;;;;;;98.80;66.60;;;;;;;;;;4424275;32;20229;-87
2022/10/18 05:56:32;;;;;;;98.80;61.57;;;;;;;;;;4424295;32;20333;-87
2022/10/18 05:58:59;;;;;;;85.67;51.00;;;;;;;;;;4423657;32;20251;-87
2022/10/18 06:01:27;;;;;;;65.00;44.30;;;;;;;;;;4423683;32;20574;-87
2022/10/18 06:03:54;;;;;;;58.67;39.67;;;;;;;;;;4423123;32;20309;-86
2022/10/18 06:06:21;;;;;;;69.50;40.37;;;;;;;;;;4424938;32;20220;-86
2022/10/18 06:08:50;;;;;;;62.43;38.27;;;;;;;;;;4424486;32;20300;-87
2022/10/18 06:11:18;;;;;;;63.27;40.13;;;;;;;;;;4426063;32;20229;-86
2022/10/18 06:13:47;;;;;;;65.93;41.67;;;;;;;;;;4425317;32;20221;-86
2022/10/18 06:16:15;;;;;;;62.43;38.17;;;;;;;;;;4425162;32;20210;-86
2022/10/18 06:18:47;;;;;;;62.70;35.50;;;;;;;;;;4423807;32;20245;-88
2022/10/18 06:21:14;;;;;;;58.97;35.87;;;;;;;;;;4424169;32;20205;-86
2022/10/18 06:23:41;;;;;;;60.47;35.70;;;;;;;;;;4424215;32;20259;-86
2022/10/18 06:26:11;;;;;;;58.70;35.03;;;;;;;;;;4422478;32;20228;-86
2022/10/18 06:28:39;;;;;;;54.87;33.17;;;;;;;;;;4422611;32;20576;-86
2022/10/18 06:31:07;;;;;;;60.00;33.07;;;;;;;;;;4423442;32;20289;-86
2022/10/18 06:33:35;;;;;;;55.67;33.23;;;;;;;;;;4423264;32;20271;-87
2022/10/18 06:36:06;;;;;;;62.73;33.27;;;;;;;;;;4423507;32;20724;-87
2022/10/18 06:38:35;;;;;;;68.57;35.30;;;;;;;;;;4422747;32;20249;-86
2022/10/18 06:41:02;;;;;;;57.40;34.53;;;;;;;;;;4423265;32;20213;-86
2022/10/18 06:43:29;;;;;;;65.43;37.07;;;;;;;;;;4422164;32;20263;-85
2022/10/18 06:45:58;;;;;;;69.00;39.23;;;;;;;;;;4423785;32;20217;-86
2022/10/18 06:48:25;;;;;;;60.53;37.90;;;;;;;;;;4423064;32;20213;-88
2022/10/18 06:51:04;;;;;;;59.70;38.47;;;;;;;;;;4423013;32;20229;-87
2022/10/18 06:53:34;;;;;;;62.43;37.43;;;;;;;;;;4423016;32;20382;-86
2022/10/18 06:56:04;;;;;;;54.23;33.57;;;;;;;;;;4422395;32;20608;-86
2022/10/18 06:58:34;;;;;;;55.33;30.10;;;;;;;;;;4422900;32;20209;-87
2022/10/18 07:01:06;;;;;;;44.97;29.57;;;;;;;;;;4422071;32;20656;-86
2022/10/18 07:03:34;;;;;;;45.37;21.87;;;;;;;;;;4421978;32;20213;-86
2022/10/18 07:06:01;;;;;;;42.43;19.47;;;;;;;;;;4422731;32;20241;-87
2022/10/18 07:08:29;;;;;;;45.97;19.47;;;;;;;;;;4422662;32;20278;-85
2022/10/18 07:10:57;;;;;;;30.77;16.47;;;;;;;;;;4422682;32;20636;-86
2022/10/18 07:13:27;;;;;;;23.30;13.53;;;;;;;;;;4422831;32;20323;-86
2022/10/18 07:16:02;;;;;;;21.67;12.93;;;;;;;;;;4423089;32;20318;-87
2022/10/18 07:18:29;;;;;;;18.17;13.10;;;;;;;;;;4422474;32;20205;-85
2022/10/18 07:20:56;;;;;;;24.80;12.33;;;;;;;;;;4422825;32;20216;-85
2022/10/18 07:23:23;;;;;;;21.00;14.93;;;;;;;;;;4422317;32;20649;-86
2022/10/18 07:25:52;;;;;;;29.77;20.20;;;;;;;;;;4422255;32;20301;-86
2022/10/18 07:28:20;;;;;;;18.57;10.87;;;;;;;;;;4421213;32;20214;-85
2022/10/18 07:30:50;;;;;;;27.20;11.53;;;;;;;;;;4421891;32;20266;-86
2022/10/18 07:33:17;;;;;;;17.10;9.50;;;;;;;;;;4422182;32;20225;-87
2022/10/18 07:35:45;;;;;;;21.17;9.50;;;;;;;;;;4422475;32;20353;-86
2022/10/18 07:38:13;;;;;;;19.27;9.83;;;;;;;;;;4422169;32;20228;-86
2022/10/18 07:40:40;;;;;;;17.07;9.80;;;;;;;;;;4421668;32;20302;-86
2022/10/18 07:43:07;;;;;;;14.53;10.47;;;;;;;;;;4422766;32;20268;-85
2022/10/18 07:45:36;;;;;;;15.23;9.73;;;;;;;;;;4422272;32;20663;-85
2022/10/18 07:48:03;;;;;;;15.17;9.87;;;;;;;;;;4423577;32;20223;-85
2022/10/18 07:50:30;;;;;;;18.13;10.33;;;;;;;;;;4422461;32;20277;-84
2022/10/18 07:52:57;;;;;;;12.47;8.60;;;;;;;;;;4421732;32;20231;-85
2022/10/18 07:55:25;;;;;;;16.63;10.00;;;;;;;;;;4421731;32;20666;-84
2022/10/18 07:57:52;;;;;;;18.40;8.67;;;;;;;;;;4422571;32;20227;-86
2022/10/18 08:00:18;;;;;;;13.27;9.43;;;;;;;;;;4421351;32;20248;-85
2022/10/18 08:02:47;;;;;;;14.57;9.40;;;;;;;;;;4423240;32;20222;-85
2022/10/18 08:05:16;;;;;;;18.27;8.60;;;;;;;;;;4421625;32;20364;-86
2022/10/18 08:07:45;;;;;;;14.67;9.67;;;;;;;;;;4422257;32;20205;-85
2022/10/18 08:10:13;;;;;;;12.83;9.30;;;;;;;;;;4420716;32;20538;-85
2022/10/18 08:12:41;;;;;;;12.07;9.33;;;;;;;;;;4422303;32;20213;-86
2022/10/18 08:15:09;;;;;;;18.50;12.10;;;;;;;;;;4421617;32;20665;-86
2022/10/18 08:17:36;;;;;;;18.00;8.03;;;;;;;;;;4421812;32;20216;-85
2022/10/18 08:20:05;;;;;;;14.10;9.40;;;;;;;;;;4421982;32;20221;-85
2022/10/18 08:22:32;;;;;;;14.47;9.30;;;;;;;;;;4421551;32;20244;-86
2022/10/18 08:25:00;;;;;;;13.80;8.10;;;;;;;;;;4421940;32;20302;-86
2022/10/18 08:27:27;;;;;;;14.03;8.40;;;;;;;;;;4421312;32;20662;-87
2022/10/18 08:29:54;;;;;;;15.17;9.27;;;;;;;;;;4421884;32;20307;-86
2022/10/18 08:32:24;;;;;;;16.70;7.73;;;;;;;;;;4421578;32;20246;-86
2022/10/18 08:34:52;;;;;;;11.63;8.10;;;;;;;;;;4421104;32;20229;-86
2022/10/18 08:37:21;;;;;;;19.33;8.93;;;;;;;;;;4420937;32;20585;-87
2022/10/18 08:39:50;;;;;;;11.30;7.80;;;;;;;;;;4420031;32;20226;-86
2022/10/18 08:42:33;;;;;;;10.43;7.60;;;;;;;;;;4420891;32;20209;-86
2022/10/18 08:45:00;;;;;;;17.27;8.67;;;;;;;;;;4421204;32;20244;-87
2022/10/18 08:47:34;;;;;;;10.20;7.30;;;;;;;;;;4421019;32;20231;-86
2022/10/18 08:50:04;;;;;;;10.97;7.57;;;;;;;;;;4421480;32;20247;-86
2022/10/18 08:52:39;;;;;;;15.90;9.03;;;;;;;;;;4421431;32;20247;-86
2022/10/18 08:55:13;;;;;;;10.67;7.13;;;;;;;;;;4421190;32;20241;-87
2022/10/18 08:57:40;;;;;;;17.93;6.70;;;;;;;;;;4421540;32;20621;-86
2022/10/18 09:00:15;;;;;;;10.57;6.97;;;;;;;;;;4420785;32;20240;-86
2022/10/18 09:03:22;;;;;;;10.50;6.97;;;;;;;;;;4424187;32;20689;-86
2022/10/18 09:05:53;;;;;;;10.80;6.47;;;;;;;;;;4399839;32;20247;-87
2022/10/18 09:08:40;;;;;;;19.03;7.27;;;;;;;;;;4407656;32;20229;-86
2022/10/18 09:11:20;;;;;;;12.60;6.87;;;;;;;;;;4407754;32;20712;-89
2022/10/18 09:14:18;;;;;;;11.60;6.47;;;;;;;;;;4394880;32;20608;-90
2022/10/18 09:16:52;;;;;;;11.37;6.27;;;;;;;;;;4406499;32;20338;-89
2022/10/18 09:19:35;;;;;;;10.23;5.80;;;;;;;;;;4407162;32;20713;-89
2022/10/18 09:22:12;;;;;;;20.20;5.80;;;;;;;;;;4395949;32;20319;-89
2022/10/18 09:24:45;;;;;;;12.70;5.20;;;;;;;;;;4408967;32;20221;-89
2022/10/18 09:27:17;;;;;;;16.57;5.50;;;;;;;;;;4410255;32;20250;-89
2022/10/18 09:30:02;;;;;;;8.20;5.40;;;;;;;;;;4409985;32;20225;-89
2022/10/18 09:32:39;;;;;;;10.60;6.17;;;;;;;;;;4409749;32;20232;-89
2022/10/18 09:35:15;;;;;;;18.10;6.57;;;;;;;;;;4395700;32;20248;-89
2022/10/18 09:37:44;;;;;;;12.20;5.47;;;;;;;;;;4408482;32;20286;-89
2022/10/18 09:40:18;;;;;;;11.33;4.97;;;;;;;;;;4409008;32;20197;-89
2022/10/18 09:42:54;;;;;;;12.20;5.93;;;;;;;;;;4409722;32;20507;-90
2022/10/18 09:45:27;;;;;;;8.00;5.33;;;;;;;;;;4409252;32;20205;-88
2022/10/18 09:48:03;;;;;;;8.85;6.12;;;;;;;;;;4408968;32;20581;-89
2022/10/18 09:50:35;;;;;;;9.33;5.70;;;;;;;;;;4409371;32;20274;-90
2022/10/18 09:53:14;;;;;;;13.80;5.00;;;;;;;;;;4409283;32;20209;-89
2022/10/18 09:55:56;;;;;;;8.00;5.40;;;;;;;;;;4395574;32;20445;-89
2022/10/18 09:58:28;;;;;;;8.37;5.60;;;;;;;;;;4408388;32;20306;-90
2022/10/18 10:00:55;;;;;;;7.62;5.65;;;;;;;;;;4409539;32;20655;-88
2022/10/18 10:03:25;;;;;;;11.63;4.57;;;;;;;;;;4408351;32;20303;-89
2022/10/18 10:06:04;;;;;;;6.33;4.77;;;;;;;;;;4424240;32;20750;-90
2022/10/18 10:08:34;;;;;;;6.90;5.03;;;;;;;;;;4425778;32;20653;-88
2022/10/18 10:11:03;;;;;;;16.33;5.33;;;;;;;;;;4423788;32;20274;-87
2022/10/18 10:13:31;;;;;;;8.00;4.37;;;;;;;;;;4422605;32;20263;-87
2022/10/18 10:16:01;;;;;;;4.72;3.80;;;;;;;;;;4423010;32;20221;-90
2022/10/18 10:18:34;;;;;;;10.15;4.57;;;;;;;;;;4423959;32;20230;-89
2022/10/18 10:21:10;;;;;;;6.18;3.42;;;;;;;;;;4424118;32;20213;-90
2022/10/18 10:23:44;;;;;;;13.20;3.47;;;;;;;;;;4423457;32;20728;-90
2022/10/18 10:26:23;;;;;;;6.62;3.33;;;;;;;;;;4423481;32;20603;-89
2022/10/18 10:28:51;;;;;;;10.10;3.72;;;;;;;;;;4423805;32;20661;-90
2022/10/18 10:31:29;;;;;;;6.55;3.83;;;;;;;;;;4424034;32;20672;-89
2022/10/18 10:34:01;;;;;;;13.73;3.95;;;;;;;;;;4424129;32;20475;-90
2022/10/18 10:36:28;;;;;;;6.20;3.75;;;;;;;;;;4423910;32;20242;-90
2022/10/18 10:39:06;;;;;;;5.03;3.05;;;;;;;;;;4423279;32;20313;-90
2022/10/18 10:41:35;;;;;;;12.05;4.18;;;;;;;;;;4423283;32;20259;-90
2022/10/18 10:44:13;;;;;;;6.10;3.58;;;;;;;;;;4423637;32;20201;-90
2022/10/18 10:46:40;;;;;;;12.25;3.60;;;;;;;;;;4423359;32;20326;-89
2022/10/18 10:49:18;;;;;;;5.85;2.75;;;;;;;;;;4424087;32;20596;-89
2022/10/18 10:51:47;;;;;;;8.65;3.03;;;;;;;;;;4422552;32;20268;-89
2022/10/18 10:54:17;;;;;;;5.12;2.83;;;;;;;;;;4423806;32;20243;-90
2022/10/18 10:56:55;;;;;;;6.93;3.00;;;;;;;;;;4423580;32;20312;-89
2022/10/18 10:59:26;;;;;;;11.35;3.40;;;;;;;;;;4422799;32;20286;-90
2022/10/18 11:02:20;;;;;;;7.62;3.00;;;;;;;;;;4423787;32;20252;-90
2022/10/18 11:04:50;;;;;;;3.78;3.05;;;;;;;;;;4423724;32;20236;-90
2022/10/18 11:07:25;;;;;;;5.85;3.00;;;;;;;;;;4422886;32;20290;-89
2022/10/18 11:09:59;;;;;;;9.57;3.67;;;;;;;;;;4423559;32;20665;-89
2022/10/18 11:12:43;;;;;;;5.35;3.17;;;;;;;;;;4423641;32;20196;-91
2022/10/18 11:15:19;;;;;;;9.48;3.12;;;;;;;;;;4423459;32;20221;-90
2022/10/18 11:17:56;;;;;;;10.07;3.90;;;;;;;;;;4423387;32;20289;-89
2022/10/18 11:20:29;;;;;;;10.25;4.22;;;;;;;;;;4423195;32;20216;-89
2022/10/18 11:23:02;;;;;;;8.48;3.00;;;;;;;;;;4423770;32;20213;-89
2022/10/18 11:25:45;;;;;;;4.85;3.42;;;;;;;;;;4423009;32;20285;-88
2022/10/18 11:28:28;;;;;;;4.93;2.70;;;;;;;;;;4423458;32;20205;-89
2022/10/18 11:31:09;;;;;;;7.20;2.60;;;;;;;;;;4423561;32;20205;-90
2022/10/18 11:33:48;;;;;;;11.32;5.60;;;;;;;;;;4422915;32;20239;-90
2022/10/18 11:36:21;;;;;;;3.97;2.67;;;;;;;;;;4422637;32;20261;-90
2022/10/18 11:38:56;;;;;;;4.32;2.90;;;;;;;;;;4423107;32;20280;-89
2022/10/18 11:41:31;;;;;;;7.40;2.70;;;;;;;;;;4423767;32;20200;-90
2022/10/18 11:44:03;;;;;;;6.95;3.05;;;;;;;;;;4423880;32;20357;-89
2022/10/18 11:46:45;;;;;;;3.05;2.17;;;;;;;;;;4424012;32;20211;-89
2022/10/18 11:49:31;;;;;;;8.65;2.30;;;;;;;;;;4425717;32;20243;-90
2022/10/18 11:52:06;;;;;;;6.20;3.05;;;;;;;;;;4428759;32;20216;-90
2022/10/18 11:54:56;;;;;;;4.55;2.53;;;;;;;;;;4434210;32;20231;-89
2022/10/18 11:57:37;;;;;;;6.18;3.10;;;;;;;;;;4434611;32;20205;-90
2022/10/18 12:00:19;;;;;;;4.53;2.90;;;;;;;;;;4436567;32;20193;-89
2022/10/18 12:03:05;;;;;;;5.95;2.58;;;;;;;;;;4427881;32;20205;-89
2022/10/18 12:05:37;;;;;;;5.10;2.45;;;;;;;;;;4423269;32;20308;-89
2022/10/18 12:08:08;;;;;;;7.50;2.60;;;;;;;;;;4423603;32;20201;-89
2022/10/18 12:10:37;;;;;;;7.93;2.62;;;;;;;;;;4410229;32;20290;-90
2022/10/18 12:13:17;;;;;;;14.85;3.10;;;;;;;;;;4423589;32;20221;-89
2022/10/18 12:15:46;;;;;;;3.42;2.25;;;;;;;;;;4424381;32;20228;-90
2022/10/18 12:18:17;;;;;;;9.30;2.78;;;;;;;;;;4425003;32;20219;-88
2022/10/18 12:20:47;;;;;;;4.25;3.08;;;;;;;;;;4425847;32;20554;-89
2022/10/18 12:23:17;;;;;;;6.30;2.72;;;;;;;;;;4426471;32;20232;-89
2022/10/18 12:25:48;;;;;;;4.12;2.62;;;;;;;;;;4425428;32;20225;-89
2022/10/18 12:28:23;;;;;;;4.57;3.03;;;;;;;;;;4429106;32;20193;-89
2022/10/18 12:30:56;;;;;;;18.87;3.12;;;;;;;;;;4433030;32;20217;-89
2022/10/18 12:33:29;;;;;;;7.40;2.55;;;;;;;;;;4434522;32;20238;-88
2022/10/18 12:36:10;;;;;;;7.70;2.55;;;;;;;;;;4432689;32;20256;-90
2022/10/18 12:38:40;;;;;;;6.68;2.17;;;;;;;;;;4424123;32;20204;-88
2022/10/18 12:41:16;;;;;;;5.45;2.55;;;;;;;;;;4422682;32;20233;-89
2022/10/18 12:43:51;;;;;;;3.90;2.08;;;;;;;;;;4422526;32;20213;-89
2022/10/18 12:46:20;;;;;;;7.97;2.80;;;;;;;;;;4422652;32;20287;-89
2022/10/18 12:49:01;;;;;;;10.07;3.03;;;;;;;;;;4422240;32;20286;-89
2022/10/18 12:51:30;;;;;;;6.95;2.20;;;;;;;;;;4422234;32;20239;-89
2022/10/18 12:54:11;;;;;;;4.87;2.87;;;;;;;;;;4421745;32;20679;-88
2022/10/18 12:56:42;;;;;;;5.75;2.33;;;;;;;;;;4421829;32;20573;-89
2022/10/18 12:59:48;;;;;;;6.93;2.17;;;;;;;;;;4408554;32;20323;-89
2022/10/18 13:02:29;;;;;;;5.70;2.20;;;;;;;;;;4421778;32;20240;-90
2022/10/18 13:04:57;;;;;;;4.15;2.62;;;;;;;;;;4421994;32;20216;-89
2022/10/18 13:07:42;;;;;;;10.02;2.67;;;;;;;;;;4428056;32;20217;-89
2022/10/18 13:10:39;;;;;;;7.68;2.55;;;;;;;;;;4427739;32;20271;-90
2022/10/18 13:13:33;;;;;;;3.55;2.40;;;;;;;;;;4424429;32;20686;-90
2022/10/18 13:16:08;;;;;;;4.95;2.12;;;;;;;;;;4421024;32;20240;-89
2022/10/18 13:18:49;;;;;;;2.58;1.98;;;;;;;;;;4422429;32;20242;-89
2022/10/18 13:21:21;;;;;;;6.22;2.40;;;;;;;;;;4422618;32;20220;-89
2022/10/18 13:24:05;;;;;;;8.00;2.67;;;;;;;;;;4422303;32;20268;-89
2022/10/18 13:26:40;;;;;;;4.62;2.87;;;;;;;;;;4421846;32;20225;-89
2022/10/18 13:29:26;;;;;;;4.78;2.50;;;;;;;;;;4421270;32;20205;-89
2022/10/18 13:32:01;;;;;;;4.00;2.33;;;;;;;;;;4421852;32;20649;-90
2022/10/18 13:34:37;;;;;;;11.15;2.40;;;;;;;;;;4421671;32;20546;-89
2022/10/18 13:37:06;;;;;;;6.37;2.60;;;;;;;;;;4421910;32;20639;-89
2022/10/18 13:39:33;;;;;;;6.18;2.83;;;;;;;;;;4421450;32;20225;-89
2022/10/18 13:42:29;;;;;;;10.57;2.95;;;;;;;;;;4421762;32;20694;-89
2022/10/18 13:45:36;;;;;;;4.05;1.90;;;;;;;;;;4421977;32;20298;-89
2022/10/18 13:48:41;;;;;;;4.85;2.45;;;;;;;;;;4423879;32;20679;-89
2022/10/18 13:51:27;;;;;;;4.15;2.05;;;;;;;;;;4425228;32;20198;-89
2022/10/18 13:54:01;;;;;;;2.92;1.95;;;;;;;;;;4424481;32;20527;-89
2022/10/18 13:56:51;;;;;;;4.20;2.20;;;;;;;;;;4423884;32;20233;-90
2022/10/18 13:59:32;;;;;;;14.30;2.05;;;;;;;;;;4424859;32;20239;-89
2022/10/18 14:02:34;;;;;;;11.02;3.65;;;;;;;;;;4424823;32;20268;-89
2022/10/18 14:05:33;;;;;;;4.85;3.55;;;;;;;;;;4424176;32;20246;-89
2022/10/18 14:08:05;;;;;;;4.50;2.80;;;;;;;;;;4424511;32;20228;-90
2022/10/18 14:10:40;;;;;;;5.62;3.12;;;;;;;;;;4424911;32;20269;-89
2022/10/18 14:13:14;;;;;;;6.85;3.72;;;;;;;;;;4424543;32;20236;-89
2022/10/18 14:15:46;;;;;;;9.13;2.97;;;;;;;;;;4424431;32;20251;-89
2022/10/18 14:18:20;;;;;;;5.03;3.58;;;;;;;;;;4424174;32;20650;-89
2022/10/18 14:20:51;;;;;;;7.18;3.60;;;;;;;;;;4424556;32;20210;-89
2022/10/18 14:23:25;;;;;;;6.70;3.62;;;;;;;;;;4424478;32;20276;-89
2022/10/18 14:26:06;;;;;;;5.20;3.80;;;;;;;;;;4423539;32;20229;-89
2022/10/18 14:28:35;;;;;;;5.53;3.05;;;;;;;;;;4423064;32;20242;-89
2022/10/18 14:31:05;;;;;;;5.05;3.25;;;;;;;;;;4423954;32;20270;-89
2022/10/18 14:33:37;;;;;;;7.87;4.28;;;;;;;;;;4424154;32;20224;-89
2022/10/18 14:36:09;;;;;;;6.97;3.95;;;;;;;;;;4423118;32;20236;-89
2022/10/18 14:38:44;;;;;;;15.68;4.10;;;;;;;;;;4423087;32;20305;-89
2022/10/18 14:41:15;;;;;;;7.37;4.25;;;;;;;;;;4411295;32;20208;-89
2022/10/18 14:43:43;;;;;;;9.13;6.10;;;;;;;;;;4423720;32;20279;-89
2022/10/18 14:46:25;;;;;;;9.57;6.70;;;;;;;;;;4424318;32;20231;-89
2022/10/18 14:48:54;;;;;;;14.10;5.87;;;;;;;;;;4423860;32;20281;-89
2022/10/18 14:51:23;;;;;;;11.50;5.57;;;;;;;;;;4423560;32;20205;-89
2022/10/18 14:53:53;;;;;;;7.25;5.10;;;;;;;;;;4422323;32;20835;-89